VTK3071 UIAA-UHMM
Flight info
| Callsign | VTK3071 |
|---|---|
| Flight time | 3h 16m |
| Altitude | 33000 |
| Route | PIGUK1F PIGUK W172 KU A801 NIBNA A803 ASKIB G369 BANOT BANOT5J |
| Aircraft | A321/M-SDE3FGHIRWY/LB1 |
Departure
| Time | 2026-05-04 13:51 |
|---|---|
| Airport | Chita-Kadala International Airport (UIAA) |
Arrival
| Time | 2026-05-04 17:07 |
|---|---|
| Airport | Sokol Airport (UHMM) |
| Time | Latitude | Longitude | Altitude | Speed | Heading |
|---|---|---|---|---|---|
| 2026-05-04 13:26 | 52.02152 | 113.30930 | 2210 ft | 0 kts | 288° |
| 2026-05-04 13:43 | 52.02153 | 113.30930 | 2237 ft | 1 kts | 288° |
| 2026-05-04 13:44 | 52.02161 | 113.30893 | 2237 ft | 4 kts | 294° |
| 2026-05-04 13:44 | 52.02174 | 113.30882 | 2237 ft | 1 kts | 339° |
| 2026-05-04 13:44 | 52.02204 | 113.30880 | 2237 ft | 7 kts | 8° |
| 2026-05-04 13:44 | 52.02241 | 113.30896 | 2237 ft | 5 kts | 16° |
| 2026-05-04 13:45 | 52.02266 | 113.30907 | 2237 ft | 3 kts | 16° |
| 2026-05-04 13:45 | 52.02303 | 113.30924 | 2237 ft | 6 kts | 16° |
| 2026-05-04 13:45 | 52.02334 | 113.30955 | 2237 ft | 5 kts | 45° |
| 2026-05-04 13:45 | 52.02343 | 113.31007 | 2237 ft | 7 kts | 89° |
| 2026-05-04 13:46 | 52.02334 | 113.31098 | 2237 ft | 10 kts | 101° |
| 2026-05-04 13:46 | 52.02319 | 113.31218 | 2237 ft | 10 kts | 101° |
| 2026-05-04 13:46 | 52.02306 | 113.31328 | 2237 ft | 13 kts | 101° |
| 2026-05-04 13:46 | 52.02289 | 113.31471 | 2237 ft | 12 kts | 101° |
| 2026-05-04 13:47 | 52.02273 | 113.31609 | 2237 ft | 16 kts | 101° |
| 2026-05-04 13:47 | 52.02252 | 113.31783 | 2237 ft | 15 kts | 101° |
| 2026-05-04 13:47 | 52.02234 | 113.31934 | 2237 ft | 14 kts | 101° |
| 2026-05-04 13:47 | 52.02233 | 113.32101 | 2237 ft | 14 kts | 81° |
| 2026-05-04 13:48 | 52.02249 | 113.32257 | 2237 ft | 14 kts | 81° |
| 2026-05-04 13:48 | 52.02263 | 113.32402 | 2237 ft | 12 kts | 80° |
| 2026-05-04 13:48 | 52.02315 | 113.32474 | 2236 ft | 10 kts | 12° |
| 2026-05-04 13:48 | 52.02339 | 113.32482 | 2236 ft | 0 kts | 11° |
| 2026-05-04 13:49 | 52.02357 | 113.32488 | 2235 ft | 9 kts | 11° |
| 2026-05-04 13:49 | 52.02398 | 113.32443 | 2234 ft | 9 kts | 277° |
| 2026-05-04 13:49 | 52.02401 | 113.32387 | 2234 ft | 0 kts | 278° |
| 2026-05-04 13:50 | 52.02406 | 113.32333 | 2234 ft | 25 kts | 280° |
| 2026-05-04 13:50 | 52.02492 | 113.31617 | 2238 ft | 100 kts | 281° |
| 2026-05-04 13:50 | 52.02663 | 113.30170 | 2241 ft | 158 kts | 281° |
| 2026-05-04 13:50 | 52.02892 | 113.28184 | 2433 ft | 192 kts | 281° |
| 2026-05-04 13:51 | 52.03034 | 113.26041 | 3273 ft | 192 kts | 270° |
| 2026-05-04 13:51 | 52.02902 | 113.24629 | 3808 ft | 190 kts | 257° |
| 2026-05-04 13:51 | 52.02666 | 113.22548 | 4508 ft | 184 kts | 277° |
| 2026-05-04 13:51 | 52.03216 | 113.20049 | 4973 ft | 184 kts | 317° |
| 2026-05-04 13:52 | 52.05248 | 113.19475 | 5555 ft | 201 kts | 19° |
| 2026-05-04 13:52 | 52.06252 | 113.21163 | 5891 ft | 222 kts | 56° |
| 2026-05-04 13:52 | 52.06892 | 113.23541 | 6200 ft | 232 kts | 63° |
| 2026-05-04 13:53 | 52.07453 | 113.26053 | 6431 ft | 241 kts | 65° |
| 2026-05-04 13:53 | 52.08020 | 113.28691 | 6685 ft | 253 kts | 65° |
| 2026-05-04 13:53 | 52.08618 | 113.31457 | 6935 ft | 266 kts | 65° |
| 2026-05-04 13:54 | 52.09913 | 113.37321 | 7882 ft | 280 kts | 65° |
| 2026-05-04 13:54 | 52.10582 | 113.40304 | 8508 ft | 282 kts | 65° |
| 2026-05-04 13:54 | 52.11950 | 113.46343 | 9761 ft | 287 kts | 65° |
| 2026-05-04 13:55 | 52.12652 | 113.49421 | 10320 ft | 291 kts | 65° |
| 2026-05-04 13:55 | 52.14081 | 113.55707 | 11437 ft | 298 kts | 65° |
| 2026-05-04 13:55 | 52.14802 | 113.58888 | 11977 ft | 301 kts | 65° |
| 2026-05-04 13:56 | 52.15520 | 113.62068 | 12509 ft | 305 kts | 65° |
| 2026-05-04 13:56 | 52.16266 | 113.65373 | 13055 ft | 309 kts | 65° |
| 2026-05-04 13:56 | 52.17772 | 113.72033 | 14077 ft | 317 kts | 65° |
| 2026-05-04 13:57 | 52.18534 | 113.75412 | 14555 ft | 320 kts | 66° |
| 2026-05-04 13:57 | 52.19303 | 113.78829 | 15042 ft | 322 kts | 66° |
| 2026-05-04 13:58 | 52.21640 | 113.89266 | 16524 ft | 331 kts | 66° |
| 2026-05-04 13:58 | 52.23224 | 113.96376 | 17520 ft | 336 kts | 66° |
| 2026-05-04 13:58 | 52.24022 | 113.99978 | 18001 ft | 339 kts | 66° |
| 2026-05-04 13:59 | 52.24836 | 114.03663 | 18419 ft | 342 kts | 66° |
| 2026-05-04 13:59 | 52.25645 | 114.07326 | 18811 ft | 345 kts | 66° |
| 2026-05-04 13:59 | 52.27606 | 114.14601 | 19265 ft | 361 kts | 60° |
| 2026-05-04 14:00 | 52.28707 | 114.18365 | 19397 ft | 373 kts | 60° |
| 2026-05-04 14:00 | 52.31011 | 114.26262 | 19664 ft | 396 kts | 60° |
| 2026-05-04 14:00 | 52.32202 | 114.30373 | 19793 ft | 406 kts | 60° |
| 2026-05-04 14:01 | 52.33421 | 114.34603 | 19934 ft | 415 kts | 61° |
| 2026-05-04 14:01 | 52.34656 | 114.38909 | 20057 ft | 423 kts | 61° |
| 2026-05-04 14:01 | 52.37196 | 114.47781 | 20433 ft | 436 kts | 61° |
| 2026-05-04 14:02 | 52.38489 | 114.52290 | 20742 ft | 439 kts | 61° |
| 2026-05-04 14:02 | 52.39790 | 114.56834 | 21076 ft | 443 kts | 61° |
| 2026-05-04 14:02 | 52.41099 | 114.61423 | 21403 ft | 446 kts | 61° |
| 2026-05-04 14:02 | 52.42414 | 114.66045 | 21743 ft | 449 kts | 61° |
| 2026-05-04 14:03 | 52.43750 | 114.70763 | 22053 ft | 452 kts | 61° |
| 2026-05-04 14:03 | 52.45076 | 114.75448 | 22367 ft | 456 kts | 61° |
| 2026-05-04 14:03 | 52.46413 | 114.80183 | 22688 ft | 458 kts | 61° |
| 2026-05-04 14:03 | 52.47753 | 114.84938 | 23008 ft | 461 kts | 61° |
| 2026-05-04 14:04 | 52.50446 | 114.94492 | 23545 ft | 467 kts | 61° |
| 2026-05-04 14:04 | 52.51831 | 114.99408 | 23811 ft | 469 kts | 61° |
| 2026-05-04 14:04 | 52.53199 | 115.04289 | 24076 ft | 471 kts | 61° |
| 2026-05-04 14:05 | 52.55932 | 115.14095 | 24617 ft | 475 kts | 61° |
| 2026-05-04 14:05 | 52.57312 | 115.19049 | 24888 ft | 477 kts | 61° |
| 2026-05-04 14:05 | 52.58689 | 115.24014 | 25138 ft | 479 kts | 61° |
| 2026-05-04 14:06 | 52.60071 | 115.29020 | 25412 ft | 481 kts | 61° |
| 2026-05-04 14:06 | 52.61452 | 115.34029 | 25691 ft | 482 kts | 61° |
| 2026-05-04 14:06 | 52.62842 | 115.39067 | 25951 ft | 484 kts | 61° |
| 2026-05-04 14:06 | 52.64254 | 115.44188 | 26225 ft | 486 kts | 61° |
| 2026-05-04 14:07 | 52.65650 | 115.49250 | 26491 ft | 488 kts | 61° |
| 2026-05-04 14:07 | 52.67051 | 115.54352 | 26752 ft | 489 kts | 61° |
| 2026-05-04 14:07 | 52.68458 | 115.59486 | 26999 ft | 491 kts | 62° |
| 2026-05-04 14:07 | 52.69857 | 115.64615 | 27241 ft | 492 kts | 62° |
| 2026-05-04 14:08 | 52.71258 | 115.69767 | 27461 ft | 494 kts | 62° |
| 2026-05-04 14:08 | 52.72683 | 115.75024 | 27688 ft | 495 kts | 62° |
| 2026-05-04 14:08 | 52.74086 | 115.80210 | 27990 ft | 495 kts | 62° |
| 2026-05-04 14:08 | 52.75467 | 115.85332 | 28271 ft | 494 kts | 62° |
| 2026-05-04 14:09 | 52.78270 | 115.95752 | 28851 ft | 493 kts | 62° |
| 2026-05-04 14:09 | 52.79661 | 116.00932 | 29125 ft | 493 kts | 62° |
| 2026-05-04 14:10 | 52.82434 | 116.11271 | 29680 ft | 492 kts | 62° |
| 2026-05-04 14:10 | 52.83824 | 116.16457 | 29912 ft | 491 kts | 62° |
| 2026-05-04 14:10 | 52.85219 | 116.21687 | 30130 ft | 491 kts | 62° |
| 2026-05-04 14:10 | 52.86584 | 116.26841 | 30367 ft | 490 kts | 62° |
| 2026-05-04 14:11 | 52.87950 | 116.32009 | 30597 ft | 489 kts | 62° |
| 2026-05-04 14:11 | 52.90659 | 116.42311 | 31025 ft | 487 kts | 63° |
| 2026-05-04 14:11 | 52.92012 | 116.47458 | 31234 ft | 486 kts | 63° |
| 2026-05-04 14:12 | 52.93359 | 116.52584 | 31448 ft | 486 kts | 63° |
| 2026-05-04 14:12 | 52.94707 | 116.57726 | 31657 ft | 485 kts | 63° |
| 2026-05-04 14:12 | 52.97389 | 116.67986 | 32047 ft | 484 kts | 63° |
| 2026-05-04 14:13 | 52.98723 | 116.73105 | 32230 ft | 484 kts | 63° |
| 2026-05-04 14:13 | 53.00058 | 116.78239 | 32415 ft | 484 kts | 63° |
| 2026-05-04 14:13 | 53.01386 | 116.83369 | 32597 ft | 483 kts | 63° |
| 2026-05-04 14:13 | 53.02708 | 116.88497 | 32718 ft | 484 kts | 63° |
| 2026-05-04 14:14 | 53.04024 | 116.93642 | 32744 ft | 484 kts | 64° |
| 2026-05-04 14:14 | 53.07867 | 117.09234 | 32738 ft | 484 kts | 65° |
| 2026-05-04 14:15 | 53.12930 | 117.29995 | 32733 ft | 484 kts | 65° |
| 2026-05-04 14:16 | 53.16736 | 117.45631 | 32723 ft | 483 kts | 65° |
| 2026-05-04 14:17 | 53.20096 | 117.59548 | 32724 ft | 483 kts | 65° |
| 2026-05-04 14:18 | 53.23840 | 117.75148 | 32720 ft | 483 kts | 65° |
| 2026-05-04 14:19 | 53.28788 | 117.95981 | 32711 ft | 482 kts | 65° |
| 2026-05-04 14:19 | 53.31243 | 118.06399 | 32714 ft | 482 kts | 66° |
| 2026-05-04 14:20 | 53.33688 | 118.16822 | 32713 ft | 481 kts | 66° |
| 2026-05-04 14:20 | 53.36131 | 118.27253 | 32706 ft | 480 kts | 66° |
| 2026-05-04 14:21 | 53.39777 | 118.42950 | 32703 ft | 480 kts | 66° |
| 2026-05-04 14:21 | 53.42179 | 118.53367 | 32704 ft | 479 kts | 66° |
| 2026-05-04 14:22 | 53.44577 | 118.63775 | 32699 ft | 479 kts | 66° |
| 2026-05-04 14:22 | 53.46965 | 118.74205 | 32694 ft | 478 kts | 66° |
| 2026-05-04 14:23 | 53.50516 | 118.89852 | 32690 ft | 478 kts | 66° |
| 2026-05-04 14:24 | 53.52871 | 119.00280 | 32688 ft | 477 kts | 67° |
| 2026-05-04 14:24 | 53.55235 | 119.10791 | 32680 ft | 477 kts | 67° |
| 2026-05-04 14:25 | 53.57574 | 119.21238 | 32673 ft | 477 kts | 67° |
| 2026-05-04 14:25 | 53.61060 | 119.36932 | 32667 ft | 477 kts | 67° |
| 2026-05-04 14:26 | 53.63365 | 119.47400 | 32655 ft | 477 kts | 67° |
| 2026-05-04 14:26 | 53.65667 | 119.57902 | 32650 ft | 477 kts | 67° |
| 2026-05-04 14:27 | 53.67967 | 119.68416 | 32641 ft | 477 kts | 67° |
| 2026-05-04 14:27 | 53.70892 | 119.78390 | 32637 ft | 474 kts | 59° |
| 2026-05-04 14:28 | 53.74045 | 119.88173 | 32636 ft | 474 kts | 59° |
| 2026-05-04 14:28 | 53.77186 | 119.97976 | 32634 ft | 474 kts | 59° |
| 2026-05-04 14:29 | 53.83430 | 120.17718 | 32641 ft | 474 kts | 59° |
| 2026-05-04 14:30 | 53.86527 | 120.27539 | 32640 ft | 473 kts | 59° |
| 2026-05-04 14:31 | 53.91166 | 120.42337 | 32642 ft | 473 kts | 59° |
| 2026-05-04 14:32 | 53.97318 | 120.62128 | 32639 ft | 472 kts | 59° |
| 2026-05-04 14:32 | 54.00368 | 120.72009 | 32635 ft | 472 kts | 59° |
| 2026-05-04 14:33 | 54.03414 | 120.81894 | 32638 ft | 472 kts | 60° |
| 2026-05-04 14:33 | 54.06444 | 120.91783 | 32637 ft | 472 kts | 60° |
| 2026-05-04 14:34 | 54.09472 | 121.01673 | 32631 ft | 471 kts | 60° |
| 2026-05-04 14:34 | 54.12493 | 121.11607 | 32636 ft | 471 kts | 60° |
| 2026-05-04 14:35 | 54.15510 | 121.21606 | 32635 ft | 471 kts | 60° |
| 2026-05-04 14:35 | 54.18513 | 121.31548 | 32633 ft | 471 kts | 60° |
| 2026-05-04 14:36 | 54.21501 | 121.41480 | 32637 ft | 471 kts | 60° |
| 2026-05-04 14:36 | 54.24485 | 121.51443 | 32639 ft | 470 kts | 60° |
| 2026-05-04 14:37 | 54.27457 | 121.61411 | 32641 ft | 470 kts | 60° |
| 2026-05-04 14:37 | 54.30424 | 121.71440 | 32649 ft | 469 kts | 60° |
| 2026-05-04 14:38 | 54.33363 | 121.81391 | 32646 ft | 468 kts | 60° |
| 2026-05-04 14:38 | 54.36293 | 121.91355 | 32652 ft | 467 kts | 61° |
| 2026-05-04 14:39 | 54.39206 | 122.01291 | 32653 ft | 466 kts | 61° |
| 2026-05-04 14:39 | 54.42120 | 122.11224 | 32647 ft | 465 kts | 60° |
| 2026-05-04 14:40 | 54.46799 | 122.25867 | 32644 ft | 463 kts | 58° |
| 2026-05-04 14:40 | 54.49944 | 122.35533 | 32644 ft | 463 kts | 59° |
| 2026-05-04 14:41 | 54.53035 | 122.45244 | 32641 ft | 462 kts | 59° |
| 2026-05-04 14:42 | 54.59314 | 122.64556 | 32634 ft | 461 kts | 57° |
| 2026-05-04 14:42 | 54.62603 | 122.74124 | 32630 ft | 461 kts | 57° |
| 2026-05-04 14:43 | 54.65293 | 122.82085 | 32624 ft | 461 kts | 58° |
| 2026-05-04 14:43 | 54.68486 | 122.91687 | 32622 ft | 461 kts | 58° |
| 2026-05-04 14:44 | 54.71673 | 123.01295 | 32619 ft | 461 kts | 58° |
| 2026-05-04 14:44 | 54.74880 | 123.10994 | 32615 ft | 461 kts | 58° |
| 2026-05-04 14:45 | 54.78064 | 123.20627 | 32612 ft | 461 kts | 58° |
| 2026-05-04 14:45 | 54.81248 | 123.30282 | 32608 ft | 461 kts | 58° |
| 2026-05-04 14:46 | 54.84417 | 123.39965 | 32608 ft | 461 kts | 58° |
| 2026-05-04 14:46 | 54.87572 | 123.49643 | 32605 ft | 461 kts | 58° |
| 2026-05-04 14:47 | 54.90725 | 123.59335 | 32603 ft | 461 kts | 58° |
| 2026-05-04 14:47 | 54.93866 | 123.69041 | 32602 ft | 461 kts | 59° |
| 2026-05-04 14:48 | 54.96999 | 123.78762 | 32595 ft | 460 kts | 59° |
| 2026-05-04 14:48 | 55.00145 | 123.88557 | 32598 ft | 460 kts | 59° |
| 2026-05-04 14:49 | 55.03255 | 123.98289 | 32593 ft | 460 kts | 59° |
| 2026-05-04 14:49 | 55.06361 | 124.08038 | 32592 ft | 460 kts | 59° |
| 2026-05-04 14:50 | 55.09457 | 124.17803 | 32592 ft | 460 kts | 59° |
| 2026-05-04 14:50 | 55.12547 | 124.27576 | 32585 ft | 459 kts | 59° |
| 2026-05-04 14:51 | 55.15622 | 124.37354 | 32584 ft | 459 kts | 59° |
| 2026-05-04 14:51 | 55.18693 | 124.47141 | 32586 ft | 459 kts | 59° |
| 2026-05-04 14:52 | 55.21769 | 124.57001 | 32583 ft | 458 kts | 59° |
| 2026-05-04 14:52 | 55.24795 | 124.66754 | 32585 ft | 458 kts | 60° |
| 2026-05-04 14:53 | 55.27809 | 124.76675 | 32591 ft | 459 kts | 65° |
| 2026-05-04 14:53 | 55.29679 | 124.87390 | 32587 ft | 460 kts | 75° |
| 2026-05-04 14:54 | 55.31231 | 124.98264 | 32586 ft | 460 kts | 75° |
| 2026-05-04 14:54 | 55.32794 | 125.09160 | 32588 ft | 460 kts | 75° |
| 2026-05-04 14:55 | 55.34338 | 125.20128 | 32579 ft | 460 kts | 75° |
| 2026-05-04 14:55 | 55.35863 | 125.31040 | 32584 ft | 459 kts | 75° |
| 2026-05-04 14:56 | 55.37375 | 125.41940 | 32582 ft | 459 kts | 75° |
| 2026-05-04 14:56 | 55.38874 | 125.52859 | 32581 ft | 459 kts | 75° |
| 2026-05-04 14:57 | 55.40369 | 125.63760 | 32580 ft | 459 kts | 75° |
| 2026-05-04 14:57 | 55.41861 | 125.74685 | 32589 ft | 459 kts | 75° |
| 2026-05-04 14:58 | 55.43339 | 125.85605 | 32582 ft | 458 kts | 76° |
| 2026-05-04 14:58 | 55.44808 | 125.96600 | 32573 ft | 458 kts | 76° |
| 2026-05-04 14:59 | 55.46256 | 126.07541 | 32587 ft | 458 kts | 76° |
| 2026-05-04 15:00 | 55.48419 | 126.23964 | 32584 ft | 459 kts | 76° |
| 2026-05-04 15:00 | 55.49845 | 126.34910 | 32572 ft | 459 kts | 76° |
| 2026-05-04 15:01 | 55.51967 | 126.51379 | 32585 ft | 459 kts | 76° |
| 2026-05-04 15:01 | 55.53380 | 126.62442 | 32591 ft | 459 kts | 76° |
| 2026-05-04 15:02 | 55.54775 | 126.73426 | 32579 ft | 459 kts | 76° |
| 2026-05-04 15:02 | 55.56162 | 126.84426 | 32588 ft | 459 kts | 76° |
| 2026-05-04 15:03 | 55.57532 | 126.95425 | 32585 ft | 459 kts | 77° |
| 2026-05-04 15:03 | 55.58893 | 127.06454 | 32589 ft | 459 kts | 77° |
| 2026-05-04 15:04 | 55.60254 | 127.17465 | 32592 ft | 459 kts | 77° |
| 2026-05-04 15:04 | 55.61605 | 127.28493 | 32589 ft | 459 kts | 77° |
| 2026-05-04 15:05 | 55.62936 | 127.39534 | 32594 ft | 459 kts | 77° |
| 2026-05-04 15:05 | 55.64269 | 127.50642 | 32593 ft | 459 kts | 77° |
| 2026-05-04 15:06 | 55.65587 | 127.61714 | 32592 ft | 459 kts | 77° |
| 2026-05-04 15:07 | 55.67536 | 127.78307 | 32594 ft | 459 kts | 77° |
| 2026-05-04 15:07 | 55.68835 | 127.89399 | 32591 ft | 459 kts | 77° |
| 2026-05-04 15:08 | 55.70115 | 128.00493 | 32591 ft | 460 kts | 77° |
| 2026-05-04 15:08 | 55.71394 | 128.11672 | 32588 ft | 460 kts | 77° |
| 2026-05-04 15:09 | 55.72656 | 128.22803 | 32585 ft | 460 kts | 77° |
| 2026-05-04 15:09 | 55.73909 | 128.33935 | 32586 ft | 460 kts | 78° |
| 2026-05-04 15:10 | 55.75785 | 128.50673 | 32587 ft | 461 kts | 78° |
| 2026-05-04 15:11 | 55.77438 | 128.65539 | 32586 ft | 461 kts | 78° |
| 2026-05-04 15:11 | 55.78658 | 128.76735 | 32587 ft | 462 kts | 78° |
| 2026-05-04 15:12 | 55.79871 | 128.88014 | 32585 ft | 462 kts | 78° |
| 2026-05-04 15:12 | 55.81078 | 128.99244 | 32583 ft | 462 kts | 78° |
| 2026-05-04 15:13 | 55.82278 | 129.10483 | 32588 ft | 463 kts | 78° |
| 2026-05-04 15:13 | 55.83460 | 129.21725 | 32587 ft | 463 kts | 78° |
| 2026-05-04 15:14 | 55.84639 | 129.32987 | 32588 ft | 463 kts | 78° |
| 2026-05-04 15:14 | 55.85815 | 129.44234 | 32593 ft | 463 kts | 78° |
| 2026-05-04 15:15 | 55.86975 | 129.55543 | 32591 ft | 464 kts | 78° |
| 2026-05-04 15:15 | 55.88120 | 129.66855 | 32591 ft | 464 kts | 79° |
| 2026-05-04 15:16 | 55.89829 | 129.83821 | 32591 ft | 464 kts | 79° |
| 2026-05-04 15:17 | 55.91497 | 130.00815 | 32596 ft | 464 kts | 79° |
| 2026-05-04 15:17 | 55.93158 | 130.17908 | 32603 ft | 464 kts | 79° |
| 2026-05-04 15:18 | 55.94251 | 130.29257 | 32610 ft | 464 kts | 79° |
| 2026-05-04 15:19 | 55.95870 | 130.46277 | 32617 ft | 463 kts | 79° |
| 2026-05-04 15:19 | 55.97476 | 130.63273 | 32619 ft | 462 kts | 79° |
| 2026-05-04 15:20 | 55.98517 | 130.74609 | 32622 ft | 462 kts | 80° |
| 2026-05-04 15:20 | 55.99552 | 130.85926 | 32622 ft | 461 kts | 80° |
| 2026-05-04 15:21 | 56.00566 | 130.97245 | 32622 ft | 461 kts | 80° |
| 2026-05-04 15:22 | 56.02069 | 131.14271 | 32630 ft | 460 kts | 81° |
| 2026-05-04 15:22 | 56.03562 | 131.31197 | 32637 ft | 459 kts | 81° |
| 2026-05-04 15:23 | 56.04532 | 131.42479 | 32637 ft | 459 kts | 81° |
| 2026-05-04 15:23 | 56.05501 | 131.53850 | 32646 ft | 459 kts | 81° |
| 2026-05-04 15:24 | 56.07391 | 131.76426 | 32642 ft | 458 kts | 81° |
| 2026-05-04 15:25 | 56.08330 | 131.87722 | 32639 ft | 458 kts | 81° |
| 2026-05-04 15:26 | 56.09695 | 132.04667 | 32638 ft | 458 kts | 82° |
| 2026-05-04 15:26 | 56.11055 | 132.21607 | 32640 ft | 458 kts | 82° |
| 2026-05-04 15:27 | 56.12383 | 132.38570 | 32651 ft | 458 kts | 82° |
| 2026-05-04 15:28 | 56.13685 | 132.55534 | 32655 ft | 458 kts | 82° |
| 2026-05-04 15:29 | 56.14964 | 132.72486 | 32655 ft | 457 kts | 82° |
| 2026-05-04 15:30 | 56.17874 | 133.12089 | 32644 ft | 456 kts | 82° |
| 2026-05-04 15:31 | 56.19109 | 133.29006 | 32648 ft | 456 kts | 83° |
| 2026-05-04 15:32 | 56.21033 | 133.57300 | 32654 ft | 455 kts | 84° |
| 2026-05-04 15:34 | 56.22832 | 133.85451 | 32662 ft | 453 kts | 84° |
| 2026-05-04 15:34 | 56.23910 | 134.02325 | 32662 ft | 452 kts | 84° |
| 2026-05-04 15:35 | 56.24993 | 134.19163 | 32667 ft | 452 kts | 84° |
| 2026-05-04 15:36 | 56.26024 | 134.36010 | 32663 ft | 451 kts | 84° |
| 2026-05-04 15:36 | 56.26701 | 134.47231 | 32665 ft | 451 kts | 84° |
| 2026-05-04 15:37 | 56.27370 | 134.58439 | 32667 ft | 450 kts | 84° |
| 2026-05-04 15:37 | 56.28019 | 134.69633 | 32665 ft | 450 kts | 84° |
| 2026-05-04 15:38 | 56.28666 | 134.80912 | 32663 ft | 450 kts | 84° |
| 2026-05-04 15:38 | 56.29294 | 134.92099 | 32663 ft | 449 kts | 85° |
| 2026-05-04 15:39 | 56.29916 | 135.03293 | 32666 ft | 449 kts | 85° |
| 2026-05-04 15:40 | 56.30738 | 135.18193 | 32668 ft | 449 kts | 85° |
| 2026-05-04 15:40 | 56.31348 | 135.29381 | 32671 ft | 449 kts | 85° |
| 2026-05-04 15:41 | 56.31951 | 135.40631 | 32673 ft | 448 kts | 85° |
| 2026-05-04 15:41 | 56.32531 | 135.51817 | 32682 ft | 448 kts | 85° |
| 2026-05-04 15:42 | 56.33096 | 135.63004 | 32682 ft | 448 kts | 85° |
| 2026-05-04 15:42 | 56.33643 | 135.74175 | 32680 ft | 448 kts | 85° |
| 2026-05-04 15:43 | 56.34204 | 135.85358 | 32682 ft | 448 kts | 85° |
| 2026-05-04 15:43 | 56.34768 | 135.96527 | 32684 ft | 447 kts | 85° |
| 2026-05-04 15:44 | 56.35307 | 136.07691 | 32688 ft | 447 kts | 85° |
| 2026-05-04 15:44 | 56.35835 | 136.18927 | 32693 ft | 447 kts | 85° |
| 2026-05-04 15:45 | 56.36351 | 136.30104 | 32695 ft | 447 kts | 85° |
| 2026-05-04 15:45 | 56.36855 | 136.41265 | 32698 ft | 446 kts | 86° |
| 2026-05-04 15:46 | 56.37346 | 136.52412 | 32697 ft | 446 kts | 86° |
| 2026-05-04 15:46 | 56.37827 | 136.63590 | 32695 ft | 446 kts | 86° |
| 2026-05-04 15:47 | 56.38309 | 136.74735 | 32695 ft | 446 kts | 86° |
| 2026-05-04 15:47 | 56.38779 | 136.85878 | 32693 ft | 445 kts | 86° |
| 2026-05-04 15:48 | 56.39233 | 136.97034 | 32694 ft | 445 kts | 86° |
| 2026-05-04 15:48 | 56.39895 | 137.13806 | 32693 ft | 445 kts | 86° |
| 2026-05-04 15:49 | 56.40316 | 137.24871 | 32693 ft | 444 kts | 86° |
| 2026-05-04 15:49 | 56.40732 | 137.36052 | 32689 ft | 444 kts | 87° |
| 2026-05-04 15:50 | 56.41144 | 137.47187 | 32691 ft | 444 kts | 87° |
| 2026-05-04 15:50 | 56.41542 | 137.58294 | 32688 ft | 443 kts | 86° |
| 2026-05-04 15:51 | 56.41934 | 137.69412 | 32682 ft | 444 kts | 87° |
| 2026-05-04 15:51 | 56.42310 | 137.80544 | 32680 ft | 444 kts | 87° |
| 2026-05-04 15:52 | 56.42682 | 137.91661 | 32678 ft | 444 kts | 85° |
| 2026-05-04 15:52 | 56.44262 | 138.02388 | 32673 ft | 444 kts | 64° |
| 2026-05-04 15:53 | 56.47849 | 138.11528 | 32672 ft | 445 kts | 44° |
| 2026-05-04 15:53 | 56.52586 | 138.18775 | 32665 ft | 446 kts | 40° |
| 2026-05-04 15:54 | 56.57344 | 138.26007 | 32663 ft | 447 kts | 41° |
| 2026-05-04 15:54 | 56.62100 | 138.33267 | 32665 ft | 447 kts | 41° |
| 2026-05-04 15:55 | 56.66866 | 138.40536 | 32661 ft | 447 kts | 41° |
| 2026-05-04 15:55 | 56.71631 | 138.47817 | 32661 ft | 447 kts | 41° |
| 2026-05-04 15:56 | 56.76386 | 138.55119 | 32662 ft | 447 kts | 41° |
| 2026-05-04 15:56 | 56.81133 | 138.62457 | 32660 ft | 447 kts | 41° |
| 2026-05-04 15:57 | 56.85877 | 138.69822 | 32661 ft | 447 kts | 41° |
| 2026-05-04 15:57 | 56.90612 | 138.77190 | 32658 ft | 447 kts | 41° |
| 2026-05-04 15:58 | 56.95354 | 138.84595 | 32658 ft | 447 kts | 42° |
| 2026-05-04 15:58 | 57.00079 | 138.91991 | 32658 ft | 447 kts | 42° |
| 2026-05-04 15:59 | 57.04810 | 138.99415 | 32663 ft | 447 kts | 42° |
| 2026-05-04 15:59 | 57.09534 | 139.06848 | 32649 ft | 447 kts | 42° |
| 2026-05-04 16:00 | 57.14276 | 139.14356 | 32650 ft | 447 kts | 42° |
| 2026-05-04 16:00 | 57.18975 | 139.21857 | 32656 ft | 447 kts | 43° |
| 2026-05-04 16:01 | 57.23674 | 139.29376 | 32661 ft | 447 kts | 43° |
| 2026-05-04 16:01 | 57.28379 | 139.36892 | 32666 ft | 447 kts | 43° |
| 2026-05-04 16:02 | 57.33073 | 139.44407 | 32664 ft | 447 kts | 43° |
| 2026-05-04 16:03 | 57.40100 | 139.55751 | 32658 ft | 446 kts | 43° |
| 2026-05-04 16:03 | 57.44775 | 139.63325 | 32656 ft | 446 kts | 43° |
| 2026-05-04 16:04 | 57.49479 | 139.70956 | 32655 ft | 446 kts | 43° |
| 2026-05-04 16:04 | 57.56467 | 139.82391 | 32643 ft | 446 kts | 44° |
| 2026-05-04 16:05 | 57.61121 | 139.90025 | 32645 ft | 446 kts | 44° |
| 2026-05-04 16:06 | 57.68129 | 140.01565 | 32646 ft | 446 kts | 44° |
| 2026-05-04 16:07 | 57.77416 | 140.16937 | 32653 ft | 446 kts | 44° |
| 2026-05-04 16:08 | 57.86670 | 140.32406 | 32650 ft | 445 kts | 45° |
| 2026-05-04 16:09 | 57.97445 | 140.50518 | 32646 ft | 445 kts | 45° |
| 2026-05-04 16:10 | 58.06682 | 140.66195 | 32655 ft | 445 kts | 45° |
| 2026-05-04 16:11 | 58.15882 | 140.81903 | 32651 ft | 445 kts | 45° |
| 2026-05-04 16:12 | 58.29673 | 141.05661 | 32648 ft | 446 kts | 46° |
| 2026-05-04 16:13 | 58.38821 | 141.21608 | 32650 ft | 446 kts | 46° |
| 2026-05-04 16:14 | 58.47973 | 141.37632 | 32651 ft | 446 kts | 46° |
| 2026-05-04 16:16 | 58.59417 | 141.57862 | 32650 ft | 447 kts | 46° |
| 2026-05-04 16:17 | 58.70806 | 141.78194 | 32652 ft | 448 kts | 46° |
| 2026-05-04 16:18 | 58.79936 | 141.94594 | 32656 ft | 449 kts | 46° |
| 2026-05-04 16:19 | 58.91310 | 142.15256 | 32662 ft | 449 kts | 47° |
| 2026-05-04 16:20 | 59.02710 | 142.36126 | 32657 ft | 450 kts | 47° |
| 2026-05-04 16:22 | 59.14185 | 142.57033 | 32662 ft | 451 kts | 47° |
| 2026-05-04 16:23 | 59.27963 | 142.82514 | 32664 ft | 453 kts | 47° |
| 2026-05-04 16:25 | 59.40044 | 143.10194 | 32663 ft | 440 kts | 73° |
| 2026-05-04 16:26 | 59.42306 | 143.33534 | 32660 ft | 434 kts | 85° |
| 2026-05-04 16:26 | 59.43584 | 143.51120 | 32658 ft | 434 kts | 86° |
| 2026-05-04 16:28 | 59.45670 | 143.80529 | 32660 ft | 435 kts | 86° |
| 2026-05-04 16:29 | 59.48403 | 144.21867 | 32651 ft | 434 kts | 88° |
| 2026-05-04 16:31 | 59.49960 | 144.51424 | 32653 ft | 435 kts | 88° |
| 2026-05-04 16:32 | 59.51730 | 144.85044 | 32651 ft | 435 kts | 88° |
| 2026-05-04 16:33 | 59.52914 | 145.08759 | 32663 ft | 435 kts | 88° |
| 2026-05-04 16:34 | 59.53777 | 145.26668 | 32662 ft | 436 kts | 88° |
| 2026-05-04 16:35 | 59.55417 | 145.61994 | 32684 ft | 418 kts | 88° |
| 2026-05-04 16:36 | 59.56168 | 145.79089 | 32692 ft | 416 kts | 89° |
| 2026-05-04 16:37 | 59.56907 | 145.96099 | 32686 ft | 416 kts | 88° |
| 2026-05-04 16:38 | 59.57971 | 146.18924 | 32687 ft | 415 kts | 88° |
| 2026-05-04 16:39 | 59.59183 | 146.47365 | 32677 ft | 415 kts | 88° |
| 2026-05-04 16:40 | 59.60136 | 146.70130 | 32681 ft | 415 kts | 89° |
| 2026-05-04 16:41 | 59.61256 | 146.98522 | 31438 ft | 413 kts | 89° |
| 2026-05-04 16:42 | 59.61877 | 147.15230 | 30062 ft | 400 kts | 89° |
| 2026-05-04 16:43 | 59.62273 | 147.26071 | 29075 ft | 391 kts | 89° |
| 2026-05-04 16:43 | 59.62656 | 147.36714 | 28059 ft | 384 kts | 89° |
| 2026-05-04 16:43 | 59.62840 | 147.42027 | 27556 ft | 382 kts | 89° |
| 2026-05-04 16:44 | 59.63534 | 147.62700 | 25668 ft | 373 kts | 89° |
| 2026-05-04 16:45 | 59.63867 | 147.72870 | 24767 ft | 369 kts | 89° |
| 2026-05-04 16:46 | 59.64349 | 147.87953 | 23464 ft | 364 kts | 89° |
| 2026-05-04 16:46 | 59.64661 | 147.97955 | 22490 ft | 360 kts | 89° |
| 2026-05-04 16:47 | 59.64954 | 148.07747 | 21510 ft | 354 kts | 89° |
| 2026-05-04 16:47 | 59.65235 | 148.17392 | 20570 ft | 349 kts | 89° |
| 2026-05-04 16:48 | 59.65641 | 148.31588 | 19206 ft | 341 kts | 89° |
| 2026-05-04 16:48 | 59.65774 | 148.36263 | 18763 ft | 339 kts | 89° |
| 2026-05-04 16:49 | 59.66031 | 148.45569 | 17885 ft | 334 kts | 90° |
| 2026-05-04 16:49 | 59.66272 | 148.54684 | 16891 ft | 330 kts | 89° |
| 2026-05-04 16:50 | 59.66509 | 148.63687 | 15933 ft | 325 kts | 89° |
| 2026-05-04 16:50 | 59.66730 | 148.72566 | 15008 ft | 321 kts | 89° |
| 2026-05-04 16:51 | 59.66945 | 148.81331 | 14105 ft | 317 kts | 89° |
| 2026-05-04 16:51 | 59.67049 | 148.85746 | 13655 ft | 316 kts | 89° |
| 2026-05-04 16:51 | 59.67249 | 148.94369 | 12679 ft | 312 kts | 89° |
| 2026-05-04 16:52 | 59.67437 | 149.02819 | 11950 ft | 300 kts | 90° |
| 2026-05-04 16:52 | 59.67531 | 149.06881 | 11705 ft | 291 kts | 90° |
| 2026-05-04 16:53 | 59.67964 | 149.14614 | 11229 ft | 278 kts | 77° |
| 2026-05-04 16:53 | 59.70452 | 149.24804 | 10526 ft | 271 kts | 66° |
| 2026-05-04 16:54 | 59.71336 | 149.28100 | 10302 ft | 271 kts | 66° |
| 2026-05-04 16:55 | 59.74568 | 149.40242 | 9457 ft | 271 kts | 66° |
| 2026-05-04 16:55 | 59.76323 | 149.46840 | 8956 ft | 270 kts | 66° |
| 2026-05-04 16:56 | 59.78065 | 149.53397 | 8468 ft | 268 kts | 66° |
| 2026-05-04 16:56 | 59.80659 | 149.63210 | 7847 ft | 265 kts | 66° |
| 2026-05-04 16:57 | 59.81514 | 149.66454 | 7670 ft | 265 kts | 66° |
| 2026-05-04 16:57 | 59.83210 | 149.72927 | 7304 ft | 264 kts | 66° |
| 2026-05-04 16:58 | 59.85739 | 149.82561 | 6758 ft | 261 kts | 66° |
| 2026-05-04 16:58 | 59.86578 | 149.85767 | 6581 ft | 260 kts | 66° |
| 2026-05-04 16:59 | 59.88242 | 149.92130 | 6225 ft | 258 kts | 66° |
| 2026-05-04 17:00 | 59.91519 | 150.04771 | 5482 ft | 253 kts | 66° |
| 2026-05-04 17:00 | 59.92499 | 150.14632 | 5025 ft | 241 kts | 96° |
| 2026-05-04 17:01 | 59.92335 | 150.21142 | 4991 ft | 229 kts | 96° |
| 2026-05-04 17:01 | 59.92201 | 150.27102 | 4829 ft | 208 kts | 96° |
| 2026-05-04 17:02 | 59.92076 | 150.32538 | 4320 ft | 180 kts | 96° |
| 2026-05-04 17:02 | 59.91969 | 150.37109 | 3853 ft | 149 kts | 96° |
| 2026-05-04 17:03 | 59.91921 | 150.39134 | 3644 ft | 144 kts | 96° |
| 2026-05-04 17:03 | 59.91873 | 150.41115 | 3438 ft | 142 kts | 95° |
| 2026-05-04 17:03 | 59.91778 | 150.45024 | 3055 ft | 141 kts | 94° |
| 2026-05-04 17:04 | 59.91682 | 150.48934 | 2656 ft | 141 kts | 93° |
| 2026-05-04 17:04 | 59.91586 | 150.52821 | 2259 ft | 140 kts | 92° |
| 2026-05-04 17:05 | 59.91490 | 150.56679 | 1842 ft | 139 kts | 92° |
| 2026-05-04 17:05 | 59.91396 | 150.60536 | 1432 ft | 140 kts | 92° |
| 2026-05-04 17:06 | 59.91293 | 150.64418 | 1028 ft | 140 kts | 92° |
| 2026-05-04 17:06 | 59.91249 | 150.66339 | 849 ft | 139 kts | 93° |
| 2026-05-04 17:07 | 59.91145 | 150.70174 | 577 ft | 136 kts | 92° |
| 2026-05-04 17:07 | 59.91114 | 150.71400 | 596 ft | 132 kts | 94° |
| 2026-05-04 17:07 | 59.91054 | 150.73580 | 576 ft | 59 kts | 93° |
| 2026-05-04 17:07 | 59.91037 | 150.74183 | 577 ft | 42 kts | 92° |
| 2026-05-04 17:08 | 59.91029 | 150.74730 | 585 ft | 35 kts | 88° |
| 2026-05-04 17:08 | 59.91024 | 150.74985 | 585 ft | 5 kts | 225° |
| 2026-05-04 17:08 | 59.91018 | 150.74796 | 585 ft | 17 kts | 272° |
| 2026-05-04 17:09 | 59.91023 | 150.74560 | 584 ft | 17 kts | 273° |
| 2026-05-04 17:09 | 59.91031 | 150.74320 | 579 ft | 18 kts | 273° |
| 2026-05-04 17:09 | 59.91036 | 150.74068 | 576 ft | 18 kts | 273° |
| 2026-05-04 17:10 | 59.91051 | 150.73564 | 576 ft | 16 kts | 273° |
| 2026-05-04 17:10 | 59.91067 | 150.72961 | 578 ft | 17 kts | 273° |
| 2026-05-04 17:11 | 59.91072 | 150.72785 | 584 ft | 7 kts | 273° |
| 2026-05-04 17:11 | 59.91086 | 150.72684 | 579 ft | 10 kts | 322° |
| 2026-05-04 17:11 | 59.91229 | 150.72691 | 578 ft | 7 kts | 2° |
| 2026-05-04 17:12 | 59.91273 | 150.72686 | 578 ft | 5 kts | 346° |
| 2026-05-04 17:12 | 59.91322 | 150.72655 | 581 ft | 3 kts | 349° |
| 2026-05-04 17:13 | 59.91357 | 150.72654 | 580 ft | 0 kts | 2° |